Time;durP1;ratioP1;P1;durP2;ratioP2;P2;SDS_P1;SDS_P2;PMS_P1;PMS_P2;Temp;Humidity;BMP_temperature;BMP_pressure;BME280_temperature;BME280_humidity;BME280_pressure;Samples;Min_cycle;Max_cycle;Signal;HPM_P1;HPM_P2
2022/01/23 00:00:33;;;;;;;;;38.75;32.50;;;;;7.01;68.73;102863.78;5048931;28;45948;-81
2022/01/23 00:03:02;;;;;;;;;44.50;35.50;;;;;6.90;68.95;102837.09;5045051;28;45523;-84
2022/01/23 00:05:34;;;;;;;;;44.75;37.75;;;;;6.92;68.84;102837.03;5042153;28;45631;-84
2022/01/23 00:08:01;;;;;;;;;44.00;35.75;;;;;7.11;68.80;102867.06;5042292;28;46338;-82
2022/01/23 00:10:27;;;;;;;;;39.00;33.25;;;;;7.15;68.53;102872.16;5048929;28;46111;-81
2022/01/23 00:13:06;;;;;;;;;33.00;27.50;;;;;7.11;68.83;102867.06;5048289;28;45563;-84
2022/01/23 00:18:15;;;;;;;;;36.00;28.50;;;;;7.17;68.91;102869.53;5035225;28;46036;-81
2022/01/23 00:20:41;;;;;;;;;37.00;30.25;;;;;7.09;68.54;102854.03;5034328;28;46104;-80
2022/01/23 00:23:14;;;;;;;;;42.25;35.00;;;;;7.18;68.71;102852.97;5035679;28;45763;-82
2022/01/23 00:31:09;;;;;;;;;45.25;40.50;;;;;7.14;68.62;102851.34;5034370;28;45840;-83
2022/01/23 00:33:35;;;;;;;;;41.75;37.25;;;;;7.02;68.93;102821.16;5034204;28;45692;-81
2022/01/23 00:36:00;;;;;;;;;47.50;39.25;;;;;7.12;68.87;102832.28;5034671;28;45800;-81
2022/01/23 00:38:25;;;;;;;;;50.00;34.50;;;;;7.16;68.78;102834.78;5033688;28;45688;-82
2022/01/23 00:40:51;;;;;;;;;44.00;38.75;;;;;7.12;69.03;102835.75;5035482;28;46240;-80
2022/01/23 00:43:31;;;;;;;;;34.50;32.75;;;;;7.04;68.84;102818.53;5035972;28;45590;-80
2022/01/23 00:46:49;;;;;;;;;38.25;35.50;;;;;7.02;68.63;102822.91;5037396;28;45573;-81
2022/01/23 00:49:23;;;;;;;;;41.50;34.50;;;;;6.99;68.96;102820.38;5014886;28;45646;-81
2022/01/23 00:51:39;;;;;;;;;42.25;36.75;;;;;7.12;68.94;102846.19;5014532;28;46249;-80
2022/01/23 00:54:07;;;;;;;;;37.75;33.25;;;;;7.06;68.82;102837.63;5015414;28;45611;-81
2022/01/23 00:56:33;;;;;;;;;40.50;32.00;;;;;7.07;68.53;102834.97;5015405;28;45626;-81
2022/01/23 00:58:59;;;;;;;;;40.75;34.25;;;;;7.06;69.02;102835.88;5015340;28;45859;-80
2022/01/23 01:01:25;;;;;;;;;45.00;38.75;;;;;7.04;68.88;102827.22;5014818;28;47316;-81
2022/01/23 01:03:50;;;;;;;;;35.75;34.25;;;;;7.07;68.62;102829.75;5014989;28;45655;-82
2022/01/23 01:06:17;;;;;;;;;46.00;33.50;;;;;7.09;68.73;102829.72;5015363;28;45682;-80
2022/01/23 01:08:43;;;;;;;;;44.50;34.50;;;;;6.99;68.79;102817.78;5015451;28;46864;-82
2022/01/23 01:36:00;;;;;;;;;44.25;36.50;;;;;6.96;68.82;102833.50;5036394;28;45606;-82
2022/01/23 01:38:25;;;;;;;;;41.25;34.75;;;;;6.97;69.18;102825.63;5036215;28;45978;-80
2022/01/23 01:40:52;;;;;;;;;44.50;34.50;;;;;6.79;69.02;102799.97;5036711;28;45530;-80
2022/01/23 01:43:18;;;;;;;;;42.50;35.75;;;;;6.93;69.19;102831.78;5036581;28;45964;-81
2022/01/23 01:45:44;;;;;;;;;36.50;31.75;;;;;6.93;68.91;102816.16;5036239;28;45778;-82
2022/01/23 01:51:32;;;;;;;;;29.75;27.50;;;;;6.91;68.84;102827.53;5035932;28;45528;-81
2022/01/23 01:54:06;;;;;;;;;33.25;30.00;;;;;6.85;69.01;102818.09;5036310;28;46036;-84
2022/01/23 01:56:39;;;;;;;;;37.25;27.50;;;;;6.89;69.28;102816.25;5035909;28;45984;-81
2022/01/23 02:10:07;;;;;;;;;44.00;32.50;;;;;6.79;69.04;102804.31;5035463;28;45528;-82
2022/01/23 02:15:58;;;;;;;;;34.50;26.00;;;;;6.84;69.32;102816.34;5033544;28;46064;-82
2022/01/23 02:18:42;;;;;;;;;35.25;31.00;;;;;6.87;69.01;102821.50;5033530;28;45922;-80
2022/01/23 02:52:16;;;;;;;;;28.75;21.25;;;;;6.86;69.02;102775.47;5039918;28;45625;-81
2022/01/23 02:57:08;;;;;;;;;24.75;21.75;;;;;6.94;69.05;102784.00;5047901;28;45660;-80
2022/01/23 02:59:37;;;;;;;;;29.00;21.00;;;;;6.93;69.11;102773.63;5041275;28;47083;-83
2022/01/23 03:10:24;;;;;;;;;27.00;22.00;;;;;6.87;68.92;102772.00;5034687;28;45819;-81
2022/01/23 03:15:29;;;;;;;;;29.50;24.00;;;;;6.83;69.10;102765.13;5034550;28;45720;-82
2022/01/23 03:24:24;;;;;;;;;32.50;25.50;;;;;6.86;68.60;102762.44;5035069;28;46081;-81
2022/01/23 03:34:24;;;;;;;;;29.75;26.00;;;;;6.86;68.90;102756.38;5034482;28;45683;-81
2022/01/23 03:36:51;;;;;;;;;30.50;24.75;;;;;6.80;68.84;102746.97;5034410;28;45499;-83
2022/01/23 03:39:17;;;;;;;;;34.00;27.00;;;;;6.70;68.99;102727.19;5034651;28;46794;-81
2022/01/23 03:41:44;;;;;;;;;31.50;25.75;;;;;6.71;68.98;102723.72;5034384;28;46246;-81
2022/01/23 03:44:12;;;;;;;;;31.25;27.25;;;;;6.84;68.85;102750.38;5035277;28;45937;-82
2022/01/23 03:51:55;;;;;;;;;27.50;22.00;;;;;6.79;69.03;102749.59;5034291;28;46085;-81
2022/01/23 03:54:22;;;;;;;;;23.50;21.50;;;;;6.54;69.04;102717.97;5034635;28;45411;-81
2022/01/23 03:56:48;;;;;;;;;28.25;22.25;;;;;6.77;68.88;102751.38;5034685;28;45558;-80
2022/01/23 03:59:13;;;;;;;;;27.50;23.75;;;;;6.67;68.46;102746.38;5033965;28;46275;-79
2022/01/23 04:01:38;;;;;;;;;30.50;25.00;;;;;6.62;68.83;102740.41;5034075;28;45620;-83
2022/01/23 04:04:13;;;;;;;;;29.00;24.75;;;;;6.72;69.03;102754.94;5034891;28;45695;-80
2022/01/23 04:06:38;;;;;;;;;29.25;24.75;;;;;6.65;68.96;102745.53;5034655;28;45558;-81
2022/01/23 04:09:04;;;;;;;;;29.25;26.50;;;;;6.63;68.72;102738.66;5034497;28;46404;-80
2022/01/23 04:11:29;;;;;;;;;32.75;27.00;;;;;6.64;68.97;102737.78;5034246;28;45572;-80
2022/01/23 04:14:04;;;;;;;;;30.25;26.75;;;;;6.58;69.04;102727.47;5032852;28;45689;-81
2022/01/23 04:35:20;;;;;;;;;40.75;24.50;;;;;6.63;69.17;102755.13;5036925;28;45605;-80
2022/01/23 04:45:17;;;;;;;;;41.25;29.25;;;;;6.66;69.31;102747.25;4995145;28;46111;-79
2022/01/23 04:47:04;;;;;;;;;33.50;24.00;;;;;6.74;69.08;102754.91;4994968;28;45800;-80
2022/01/23 04:59:52;;;;;;;;;26.25;21.75;;;;;6.72;69.10;102741.06;4994888;28;45714;-81
2022/01/23 05:08:23;;;;;;;;;25.25;21.00;;;;;6.80;68.93;102753.94;4994715;28;45708;-81
2022/01/23 05:10:49;;;;;;;;;31.50;25.50;;;;;6.73;69.07;102735.81;4994893;28;45514;-82
2022/01/23 05:13:14;;;;;;;;;29.75;23.00;;;;;6.76;69.14;102745.31;4994453;28;46641;-81
2022/01/23 05:15:40;;;;;;;;;28.00;23.50;;;;;6.69;69.17;102730.72;4977986;28;46903;-80
2022/01/23 05:18:05;;;;;;;;;33.50;24.25;;;;;6.68;68.86;102732.47;5022941;28;45710;-81
2022/01/23 05:23:53;;;;;;;;;28.00;21.75;;;;;6.84;68.98;102751.22;5036520;28;45538;-83
2022/01/23 05:26:18;;;;;;;;;30.50;24.50;;;;;6.84;69.21;102756.44;5036098;28;46021;-83
2022/01/23 05:28:44;;;;;;;;;25.00;18.50;;;;;6.82;68.84;102758.19;5036615;28;45967;-82
2022/01/23 05:31:09;;;;;;;;;34.50;24.50;;;;;6.79;69.31;102757.41;5036720;28;45649;-81
2022/01/23 05:33:34;;;;;;;;;23.75;21.50;;;;;6.73;68.98;102755.81;5036744;28;45527;-80
2022/01/23 05:39:49;;;;;;;;;34.00;24.50;;;;;6.56;69.12;102730.09;5030204;28;45799;-80
2022/01/23 05:42:15;;;;;;;;;34.25;27.75;;;;;6.53;68.93;102735.34;5036832;28;45787;-81
2022/01/23 05:44:41;;;;;;;;;29.25;25.00;;;;;6.64;69.17;102767.25;5036450;28;46833;-80
2022/01/23 05:47:08;;;;;;;;;28.00;24.50;;;;;6.55;68.95;102737.94;5035983;28;45478;-80
2022/01/23 05:49:35;;;;;;;;;33.75;23.00;;;;;6.68;69.28;102760.25;5036019;28;45817;-79
2022/01/23 05:55:22;;;;;;;;;28.25;23.50;;;;;6.70;69.09;102759.31;5035526;28;45966;-81
2022/01/23 05:57:47;;;;;;;;;25.75;21.75;;;;;6.62;68.82;102743.00;5036085;28;45814;-79
2022/01/23 06:00:14;;;;;;;;;35.50;24.75;;;;;6.74;69.20;102755.78;5036150;28;45443;-80
2022/01/23 06:02:40;;;;;;;;;27.25;17.25;;;;;6.75;69.00;102764.41;5036375;28;45548;-82
2022/01/23 06:05:06;;;;;;;;;27.25;21.50;;;;;6.78;69.00;102763.53;5035822;28;46326;-79
2022/01/23 06:10:54;;;;;;;;;25.00;22.25;;;;;6.75;68.85;102760.06;5035308;28;45500;-80
2022/01/23 06:13:20;;;;;;;;;20.00;17.50;;;;;6.52;68.73;102728.47;5036019;28;45749;-80
2022/01/23 06:15:46;;;;;;;;;23.50;20.75;;;;;6.53;69.09;102743.16;5035402;28;46368;-81
2022/01/23 06:18:12;;;;;;;;;24.75;20.50;;;;;6.57;68.74;102743.97;5035938;28;46136;-80
2022/01/23 06:20:39;;;;;;;;;32.75;25.00;;;;;6.68;68.77;102768.94;5035459;28;45727;-81
2022/01/23 06:23:04;;;;;;;;;27.00;19.25;;;;;6.49;69.04;102736.31;5035987;28;45596;-78
2022/01/23 06:25:35;;;;;;;;;23.25;21.00;;;;;6.58;68.62;102749.16;5035353;28;46368;-82
2022/01/23 06:28:05;;;;;;;;;28.25;22.00;;;;;6.35;68.78;102694.09;5035539;28;46294;-81
2022/01/23 06:30:32;;;;;;;;;24.75;21.00;;;;;6.71;68.78;102760.16;5035380;28;45545;-82
2022/01/23 06:32:57;;;;;;;;;29.00;22.50;;;;;6.72;69.52;102756.69;5036418;28;45916;-81
2022/01/23 06:35:23;;;;;;;;;22.75;18.00;;;;;6.72;69.02;102756.69;5040710;28;45609;-81
2022/01/23 06:41:10;;;;;;;;;18.25;15.50;;;;;6.71;69.12;102766.25;5028088;28;45848;-80
2022/01/23 06:43:35;;;;;;;;;23.50;17.75;;;;;6.70;68.99;102761.06;5041330;28;45439;-80
2022/01/23 06:46:01;;;;;;;;;24.00;17.00;;;;;6.72;69.04;102756.69;5049462;28;45420;-80
2022/01/23 06:48:26;;;;;;;;;17.50;14.25;;;;;6.71;69.13;102766.25;5051651;28;46691;-80
2022/01/23 06:50:51;;;;;;;;;21.75;18.00;;;;;6.64;68.76;102745.59;5046530;28;45491;-81
2022/01/23 06:53:17;;;;;;;;;15.50;12.75;;;;;6.45;68.88;102719.03;5036391;28;45807;-81
2022/01/23 06:55:42;;;;;;;;;15.50;12.75;;;;;6.57;68.64;102733.56;5035897;28;46390;-82
2022/01/23 06:58:15;;;;;;;;;17.25;14.50;;;;;6.56;68.87;102739.66;5035492;28;46544;-80
2022/01/23 07:00:40;;;;;;;;;15.25;13.75;;;;;6.64;68.70;102775.06;5033643;28;45693;-80
2022/01/23 07:03:06;;;;;;;;;18.50;15.00;;;;;6.54;68.81;102751.84;5035488;28;45672;-80
2022/01/23 07:05:31;;;;;;;;;19.25;13.00;;;;;6.50;68.65;102756.25;5033522;28;47417;-80
2022/01/23 07:11:18;;;;;;;;;18.00;16.50;;;;;6.55;69.05;102775.25;5034893;28;45905;-79
2022/01/23 07:13:43;;;;;;;;;10.00;9.00;;;;;6.53;68.99;102778.78;5033487;28;45564;-81
2022/01/23 07:16:09;;;;;;;;;12.50;11.75;;;;;6.44;68.95;102758.13;5033589;28;48770;-79
2022/01/23 07:18:34;;;;;;;;;17.25;14.50;;;;;6.46;68.67;102757.22;5049827;28;47194;-81
2022/01/23 07:21:00;;;;;;;;;13.25;10.50;;;;;6.58;68.91;102784.75;5034744;28;45645;-80
2022/01/23 07:26:47;;;;;;;;;14.50;12.00;;;;;6.56;68.56;102773.50;5034162;28;46044;-80
2022/01/23 07:29:12;;;;;;;;;16.25;11.50;;;;;6.60;68.71;102772.56;5034389;28;45786;-81
2022/01/23 07:34:08;;;;;;;;;14.25;13.00;;;;;6.61;68.68;102788.16;5034439;28;45722;-80
2022/01/23 07:36:35;;;;;;;;;14.25;13.00;;;;;6.60;68.54;102780.38;5034235;28;46777;-81
2022/01/23 07:39:02;;;;;;;;;16.75;14.00;;;;;6.59;68.40;102778.63;5034241;28;46340;-79
2022/01/23 07:41:28;;;;;;;;;23.75;16.75;;;;;6.57;68.90;102781.28;5034314;28;46015;-79
2022/01/23 07:43:54;;;;;;;;;19.25;16.00;;;;;6.58;68.58;102774.34;5034672;28;45684;-81
2022/01/23 07:46:21;;;;;;;;;18.25;14.00;;;;;6.45;68.60;102750.28;5034464;28;46896;-82
2022/01/23 07:48:46;;;;;;;;;17.75;14.50;;;;;6.48;68.42;102759.78;5034105;28;45999;-80
2022/01/23 07:51:12;;;;;;;;;13.25;12.25;;;;;6.51;68.66;102749.31;5034072;28;45568;-81
2022/01/23 07:56:59;;;;;;;;;18.50;16.50;;;;;6.58;68.58;102770.00;5034177;28;46024;-80
2022/01/23 07:59:24;;;;;;;;;16.00;13.75;;;;;6.53;68.63;102755.34;5034329;28;45768;-80
2022/01/23 08:01:50;;;;;;;;;16.00;13.75;;;;;6.63;68.62;102785.53;5034405;28;45550;-81
2022/01/23 08:04:15;;;;;;;;;14.50;10.50;;;;;6.55;68.88;102782.19;5034370;28;45575;-83
2022/01/23 08:06:44;;;;;;;;;13.75;12.75;;;;;6.58;68.88;102798.66;5034525;28;45483;-82
2022/01/23 08:09:10;;;;;;;;;17.00;13.00;;;;;6.55;68.72;102788.28;5034314;28;45948;-83
2022/01/23 08:11:35;;;;;;;;;13.75;12.50;;;;;6.60;68.44;102802.06;5034398;28;45775;-82
2022/01/23 08:14:01;;;;;;;;;15.00;13.75;;;;;6.57;68.76;102796.06;5034597;28;45592;-80
2022/01/23 08:16:26;;;;;;;;;18.00;17.00;;;;;6.58;68.63;102795.19;5034155;28;45656;-79
2022/01/23 08:18:52;;;;;;;;;13.00;11.25;;;;;6.62;68.40;102813.31;5034315;28;45905;-81
2022/01/23 08:21:17;;;;;;;;;10.50;10.50;;;;;6.62;68.44;102821.13;5034276;28;45633;-82
2022/01/23 08:27:04;;;;;;;;;14.25;12.50;;;;;6.58;68.47;102806.47;5033909;28;45529;-80
2022/01/23 08:29:30;;;;;;;;;15.00;11.75;;;;;6.57;68.43;102809.09;5034636;28;45597;-79
2022/01/23 08:31:55;;;;;;;;;11.50;8.00;;;;;6.55;68.29;102806.50;5036153;28;45666;-82
2022/01/23 08:34:20;;;;;;;;;19.25;13.75;;;;;6.54;68.28;102804.78;5034624;28;45733;-81
2022/01/23 08:36:46;;;;;;;;;20.75;16.00;;;;;6.49;68.53;102797.94;5034350;28;45807;-80
2022/01/23 08:42:33;;;;;;;;;21.50;17.50;;;;;6.52;68.31;102803.09;5022644;28;45819;-83
2022/01/23 08:44:58;;;;;;;;;24.50;20.50;;;;;6.57;68.34;102812.56;5034190;28;45582;-82
2022/01/23 08:47:23;;;;;;;;;20.50;16.50;;;;;6.36;68.58;102778.25;5034258;28;45563;-83
2022/01/23 08:49:50;;;;;;;;;18.00;16.00;;;;;6.57;68.53;102815.16;5032721;28;46623;-82
2022/01/23 08:52:21;;;;;;;;;20.75;17.25;;;;;6.56;68.14;102803.00;5034400;28;45682;-81
2022/01/23 08:54:59;;;;;;;;;23.75;17.25;;;;;6.66;68.48;102807.16;5034204;28;45527;-84
2022/01/23 08:57:25;;;;;;;;;20.50;15.50;;;;;6.61;68.26;102806.38;5034084;28;46755;-80
2022/01/23 08:59:51;;;;;;;;;17.75;15.50;;;;;6.71;68.51;102815.72;5033919;28;46176;-80
2022/01/23 09:02:18;;;;;;;;;19.25;16.25;;;;;6.74;68.37;102822.66;5036351;28;45723;-79
2022/01/23 09:04:45;;;;;;;;;22.25;17.25;;;;;6.74;68.31;102815.69;5036574;28;45614;-79
2022/01/23 09:07:10;;;;;;;;;14.25;13.50;;;;;6.78;68.35;102813.00;5036109;28;45704;-80
2022/01/23 09:13:11;;;;;;;;;17.00;12.75;;;;;6.58;68.02;102783.03;5036087;28;45761;-78
2022/01/23 09:15:37;;;;;;;;;18.75;12.25;;;;;6.80;68.31;102819.06;5036163;28;45526;-82
2022/01/23 09:18:03;;;;;;;;;16.50;12.50;;;;;6.63;68.32;102790.75;5036058;28;46212;-80
2022/01/23 09:20:28;;;;;;;;;18.25;12.00;;;;;6.82;68.11;102817.25;5036346;28;46403;-80
2022/01/23 09:22:54;;;;;;;;;17.25;13.00;;;;;6.81;68.32;102812.94;5036395;28;45939;-81
2022/01/23 09:25:20;;;;;;;;;18.50;15.00;;;;;6.85;68.12;102819.81;5036273;28;45750;-80
2022/01/23 09:27:46;;;;;;;;;17.75;16.25;;;;;6.71;67.88;102794.03;5035924;28;46453;-79
2022/01/23 09:30:19;;;;;;;;;16.75;13.50;;;;;6.85;67.87;102823.28;5036030;28;46073;-79
2022/01/23 09:32:49;;;;;;;;;13.75;12.50;;;;;6.86;68.07;102818.91;5036041;28;46131;-78
2022/01/23 09:35:16;;;;;;;;;14.75;13.75;;;;;6.88;68.09;102827.56;5036365;28;45677;-78
2022/01/23 09:37:42;;;;;;;;;14.75;14.75;;;;;6.89;68.32;102816.25;5036018;28;45554;-78
2022/01/23 09:40:09;;;;;;;;;20.25;15.75;;;;;6.89;67.98;102818.88;5035894;28;46180;-77
2022/01/23 09:42:43;;;;;;;;;41.00;34.25;;;;;6.92;68.09;102831.81;5036343;28;45820;-79
2022/01/23 09:45:11;;;;;;;;;19.50;17.00;;;;;6.89;67.98;102817.13;5037128;28;45604;-80
2022/01/23 09:47:38;;;;;;;;;19.25;17.00;;;;;6.72;68.04;102788.81;5036707;28;45561;-81
2022/01/23 09:50:07;;;;;;;;;16.50;11.25;;;;;6.91;68.17;102820.53;5037298;28;46179;-79
2022/01/23 09:52:35;;;;;;;;;18.00;15.50;;;;;6.87;68.10;102816.28;5036978;28;45698;-77
2022/01/23 09:58:22;;;;;;;;;14.00;12.00;;;;;6.90;68.06;102825.81;5041130;28;46020;-79
2022/01/23 10:00:47;;;;;;;;;11.75;10.25;;;;;6.86;68.32;102819.78;5043659;28;46154;-77
2022/01/23 10:03:15;;;;;;;;;20.00;15.00;;;;;6.89;67.94;102826.69;5042066;28;45650;-78
2022/01/23 10:05:41;;;;;;;;;8.50;6.75;;;;;6.85;68.10;102817.22;5038968;28;45609;-81
2022/01/23 10:08:07;;;;;;;;;14.75;11.75;;;;;6.87;67.82;102826.69;5035207;28;45653;-79
2022/01/23 10:10:38;;;;;;;;;23.25;18.25;;;;;6.81;67.78;102818.16;5035902;28;45571;-78
2022/01/23 10:13:03;;;;;;;;;13.75;9.75;;;;;6.89;68.02;102829.28;5035355;28;45490;-76
2022/01/23 10:15:31;;;;;;;;;16.75;10.50;;;;;6.85;67.88;102817.22;5035646;28;45489;-77
2022/01/23 10:17:57;;;;;;;;;14.00;13.00;;;;;6.92;67.73;102831.81;5035635;28;45600;-81
2022/01/23 10:20:24;;;;;;;;;12.75;10.00;;;;;6.91;67.71;102837.94;5035618;28;46136;-78
2022/01/23 10:22:50;;;;;;;;;16.25;12.00;;;;;6.87;67.80;102823.25;5035168;28;45869;-75
2022/01/23 10:28:37;;;;;;;;;11.00;9.00;;;;;6.96;67.72;102828.28;5034467;28;45933;-81
2022/01/23 10:31:05;;;;;;;;;11.75;10.00;;;;;6.96;67.57;102828.28;5034921;28;45984;-81
2022/01/23 10:33:34;;;;;;;;;13.00;9.00;;;;;6.96;67.80;102825.69;5034932;28;45877;-79
2022/01/23 10:36:06;;;;;;;;;10.00;8.75;;;;;6.97;67.71;102828.22;5034513;28;45910;-83
2022/01/23 10:38:31;;;;;;;;;17.00;9.00;;;;;6.99;67.78;102833.41;5034788;28;45765;-79
2022/01/23 10:41:45;;;;;;;;;12.00;8.50;;;;;6.93;67.73;102823.13;5035166;28;45492;-75
2022/01/23 10:47:31;;;;;;;;;12.00;9.00;;;;;7.05;67.56;102825.47;5035527;28;45675;-79
2022/01/23 10:50:04;;;;;;;;;13.00;10.00;;;;;6.97;67.70;102810.00;5035283;28;46505;-78
2022/01/23 10:52:35;;;;;;;;;13.00;9.50;;;;;7.05;67.85;102809.84;5034937;28;45636;-81
2022/01/23 10:55:03;;;;;;;;;11.00;10.50;;;;;7.05;67.69;102815.91;5034770;28;45913;-81
2022/01/23 10:57:37;;;;;;;;;12.00;12.00;;;;;7.05;67.55;102813.31;5033120;28;45710;-80
2022/01/23 11:00:06;;;;;;;;;14.75;9.75;;;;;6.93;67.63;102797.91;5034419;28;46245;-75
2022/01/23 11:02:32;;;;;;;;;10.25;9.00;;;;;7.07;67.64;102808.06;5034741;28;45800;-79
2022/01/23 11:05:00;;;;;;;;;13.25;9.50;;;;;7.07;67.43;102811.50;5034478;28;45609;-78
2022/01/23 11:07:28;;;;;;;;;15.75;10.50;;;;;7.07;67.73;102814.13;5049946;28;45803;-79
2022/01/23 11:10:11;;;;;;;;;11.50;10.00;;;;;7.07;67.54;102808.06;5034008;28;47771;-77
2022/01/23 11:18:09;;;;;;;;;13.00;8.00;;;;;7.05;67.76;102799.41;5034038;28;45647;-77
2022/01/23 11:20:38;;;;;;;;;16.50;11.25;;;;;7.07;67.29;102795.03;5034129;28;46023;-77
2022/01/23 11:23:24;;;;;;;;;12.50;9.50;;;;;7.01;67.40;102782.13;5034313;28;46176;-77
2022/01/23 11:25:52;;;;;;;;;13.75;8.75;;;;;7.09;67.29;102790.63;5033680;28;45825;-79
2022/01/23 11:28:19;;;;;;;;;15.00;10.50;;;;;7.09;67.56;102780.22;5034201;28;45527;-78
2022/01/23 11:30:50;;;;;;;;;11.50;10.00;;;;;7.09;67.38;102775.84;5033979;28;45538;-78
2022/01/23 11:33:18;;;;;;;;;14.00;10.00;;;;;7.08;67.27;102773.28;5034129;28;45976;-78
2022/01/23 11:35:48;;;;;;;;;12.75;11.00;;;;;7.10;67.24;102768.91;5034023;28;45555;-78
2022/01/23 11:38:17;;;;;;;;;6.25;6.00;;;;;6.99;67.47;102755.25;5033856;28;46975;-75
2022/01/23 11:57:56;;;;;;;;;13.75;11.00;;;;;7.06;67.30;102752.47;5033544;28;45719;-76
2022/01/23 12:00:27;;;;;;;;;15.50;10.25;;;;;7.03;67.41;102747.31;5034068;28;46077;-80
2022/01/23 12:03:14;;;;;;;;;12.25;10.00;;;;;6.97;67.36;102738.78;5033555;28;47424;-76
2022/01/23 12:05:50;;;;;;;;;13.00;10.50;;;;;7.01;67.04;102735.22;5033311;28;46292;-77
2022/01/23 12:08:32;;;;;;;;;10.50;9.25;;;;;7.01;67.42;102728.28;5033497;28;45775;-79
2022/01/23 12:17:00;;;;;;;;;12.75;9.75;;;;;7.10;67.66;102741.09;5033340;28;46141;-78
2022/01/23 12:19:28;;;;;;;;;9.50;8.50;;;;;7.11;67.09;102739.34;5033548;28;45869;-76
2022/01/23 12:21:55;;;;;;;;;18.50;15.00;;;;;7.06;67.04;102726.44;5033499;28;45639;-79
2022/01/23 12:24:24;;;;;;;;;14.25;10.00;;;;;7.12;67.01;102730.63;5033367;28;46383;-80
2022/01/23 12:26:52;;;;;;;;;35.00;29.25;;;;;7.02;67.08;102713.47;5033173;28;46100;-78
2022/01/23 12:29:26;;;;;;;;;10.00;9.25;;;;;7.07;66.85;102714.25;5033498;28;45771;-78
2022/01/23 12:32:16;;;;;;;;;12.00;10.00;;;;;7.11;66.92;102721.97;5033322;28;45966;-77
2022/01/23 12:35:04;;;;;;;;;9.75;9.75;;;;;7.11;66.98;102714.16;5033122;28;45697;-78
2022/01/23 12:38:00;;;;;;;;;32.50;25.00;;;;;7.12;66.90;102715.00;5035534;28;46089;-76
2022/01/23 12:40:34;;;;;;;;;13.50;11.25;;;;;7.10;67.03;102703.75;5036737;28;45619;-78
2022/01/23 12:43:25;;;;;;;;;19.25;14.75;;;;;7.13;66.94;102703.66;5036518;28;45574;-76
2022/01/23 12:45:57;;;;;;;;;28.00;23.50;;;;;7.13;67.00;102703.66;5036626;28;46422;-78
2022/01/23 12:48:26;;;;;;;;;31.50;28.50;;;;;7.15;66.99;102694.94;5036241;28;46270;-78
2022/01/23 12:51:03;;;;;;;;;27.75;25.75;;;;;7.13;66.77;102688.88;5036566;28;45519;-78
2022/01/23 12:53:45;;;;;;;;;23.75;17.25;;;;;7.14;66.82;102680.19;5036719;28;45537;-78
2022/01/23 12:56:23;;;;;;;;;41.75;38.25;;;;;7.23;66.71;102683.47;5035984;28;46260;-79
2022/01/23 12:59:06;;;;;;;;;71.25;53.50;;;;;7.16;66.80;102661.91;5051300;28;46965;-78
2022/01/23 13:01:33;;;;;;;;;21.75;18.00;;;;;7.16;66.87;102661.91;5036598;28;45630;-76
2022/01/23 13:04:01;;;;;;;;;19.00;18.50;;;;;7.30;66.84;102670.22;5036462;28;45481;-78
2022/01/23 13:06:57;;;;;;;;;27.50;24.25;;;;;7.25;66.75;102660.81;5035848;28;46637;-77
2022/01/23 13:12:51;;;;;;;;;24.00;20.75;;;;;7.39;66.70;102671.78;5036064;28;45996;-81
2022/01/23 13:35:13;;;;;;;;;16.75;14.00;;;;;7.52;66.63;102641.88;5035622;28;45764;-79
2022/01/23 13:37:44;;;;;;;;;18.25;17.25;;;;;7.51;66.64;102638.41;5036085;28;45635;-78
2022/01/23 13:40:19;;;;;;;;;19.25;17.00;;;;;7.53;66.74;102635.78;5035667;28;46486;-79
2022/01/23 14:02:24;;;;;;;;;17.75;14.00;;;;;7.50;66.55;102608.00;4973729;28;45637;-78
2022/01/23 14:04:54;;;;;;;;;20.25;18.75;;;;;7.45;66.43;102593.41;4973850;28;46178;-79
2022/01/23 14:07:25;;;;;;;;;40.50;37.75;;;;;7.47;66.49;102599.41;4973877;28;45964;-80
2022/01/23 14:13:19;;;;;;;;;24.75;21.75;;;;;7.54;66.31;102595.75;4973560;28;45555;-79
2022/01/23 14:15:48;;;;;;;;;23.25;17.75;;;;;7.56;66.25;102591.34;4973701;28;46152;-76
2022/01/23 14:18:20;;;;;;;;;21.75;18.00;;;;;7.53;66.38;102578.41;4973722;28;45948;-78
2022/01/23 14:20:58;;;;;;;;;18.75;15.00;;;;;7.60;66.45;102587.78;4974068;28;45744;-79
2022/01/23 14:23:25;;;;;;;;;22.00;17.75;;;;;7.55;66.48;102577.47;4973359;28;47295;-78
2022/01/23 14:29:13;;;;;;;;;19.00;15.25;;;;;7.64;66.30;102580.72;4973507;28;46081;-77
2022/01/23 14:31:40;;;;;;;;;20.50;15.00;;;;;7.61;66.13;102588.63;5027269;28;45680;-79
2022/01/23 14:34:23;;;;;;;;;17.50;13.75;;;;;7.61;66.35;102588.63;5034798;28;46866;-79
2022/01/23 14:36:56;;;;;;;;;18.50;16.50;;;;;7.41;66.29;102555.25;5034391;28;47033;-80
2022/01/23 14:39:23;;;;;;;;;22.25;14.75;;;;;7.46;66.07;102564.66;5034945;28;45529;-80
2022/01/23 14:45:52;;;;;;;;;17.25;14.75;;;;;7.52;66.15;102585.34;5030109;28;45942;-79
2022/01/23 14:48:18;;;;;;;;;29.25;18.00;;;;;7.52;66.20;102572.31;5034499;28;46146;-78
2022/01/23 14:50:48;;;;;;;;;21.50;17.75;;;;;7.55;66.13;102576.63;5034779;28;45742;-79
2022/01/23 14:53:19;;;;;;;;;24.00;18.75;;;;;7.23;65.95;102521.84;5034691;28;45807;-78
2022/01/23 14:55:50;;;;;;;;;19.75;17.00;;;;;7.55;66.08;102566.19;5034455;28;46558;-78
2022/01/23 14:58:21;;;;;;;;;21.50;17.50;;;;;7.61;66.03;102565.16;5034233;28;46552;-81
2022/01/23 15:00:49;;;;;;;;;19.25;15.25;;;;;7.57;65.99;102562.63;5034039;28;46035;-76
2022/01/23 15:03:15;;;;;;;;;21.50;17.50;;;;;7.38;65.96;102535.34;5034492;28;45845;-78
2022/01/23 15:05:41;;;;;;;;;18.75;17.00;;;;;7.60;65.94;102569.50;5034341;28;46429;-80
2022/01/23 15:08:09;;;;;;;;;16.50;13.25;;;;;7.62;65.91;102577.28;5034147;28;46072;-80
2022/01/23 15:10:44;;;;;;;;;17.25;11.00;;;;;7.62;65.89;102565.09;5049664;28;45814;-79
2022/01/23 15:13:11;;;;;;;;;14.25;14.00;;;;;7.64;65.87;102565.06;5034326;28;45542;-77
2022/01/23 15:15:37;;;;;;;;;15.00;13.50;;;;;7.62;65.80;102557.28;5033994;28;47784;-80
2022/01/23 15:18:03;;;;;;;;;17.75;14.75;;;;;7.59;65.60;102555.63;5034113;28;45710;-79
2022/01/23 15:20:31;;;;;;;;;23.50;19.25;;;;;7.58;65.77;102556.50;5034293;28;45629;-77
2022/01/23 15:22:57;;;;;;;;;21.00;17.25;;;;;7.53;65.78;102547.09;5034344;28;45798;-79
2022/01/23 15:25:24;;;;;;;;;20.25;14.75;;;;;7.61;65.72;102555.59;5033949;28;46457;-78
2022/01/23 15:27:50;;;;;;;;;25.25;20.75;;;;;7.64;65.49;102557.22;5033633;28;46283;-80
2022/01/23 15:30:16;;;;;;;;;2.50;0.75;;;;;7.64;65.41;102555.50;5033998;28;45625;-76
2022/01/23 15:32:44;;;;;;;;;18.75;15.25;;;;;7.52;65.41;102535.81;5034206;28;45717;-76
2022/01/23 15:35:11;;;;;;;;;21.50;17.00;;;;;7.65;65.51;102551.13;5033717;28;46267;-77
2022/01/23 15:37:37;;;;;;;;;23.50;14.50;;;;;7.63;65.37;102551.16;5033831;28;46146;-78
2022/01/23 15:40:04;;;;;;;;;18.50;15.00;;;;;7.47;65.41;102518.56;5033715;28;45610;-77
2022/01/23 15:45:52;;;;;;;;;17.25;13.25;;;;;7.64;65.44;102555.50;5026663;28;46048;-78
2022/01/23 15:48:18;;;;;;;;;21.50;17.50;;;;;7.64;65.40;102555.50;5033476;28;46352;-81
2022/01/23 15:50:43;;;;;;;;;29.00;20.25;;;;;7.53;65.38;102521.88;5033703;28;45630;-80
2022/01/23 15:53:08;;;;;;;;;17.25;15.25;;;;;7.65;65.33;102544.16;5033983;28;45551;-79
2022/01/23 15:55:35;;;;;;;;;19.75;18.25;;;;;7.57;65.20;102533.94;5049163;28;45503;-80
2022/01/23 15:58:00;;;;;;;;;23.00;17.50;;;;;7.36;65.23;102494.53;5033517;28;46005;-79
2022/01/23 16:00:26;;;;;;;;;22.00;17.50;;;;;7.67;65.28;102546.69;5033764;28;45636;-81
2022/01/23 16:02:51;;;;;;;;;22.25;19.50;;;;;7.68;65.47;102540.59;5033832;28;45655;-80
2022/01/23 16:05:19;;;;;;;;;18.00;17.50;;;;;7.64;65.24;102550.28;5033369;28;46125;-79
2022/01/23 16:07:45;;;;;;;;;32.50;22.75;;;;;7.47;64.95;102515.97;5033419;28;46137;-79
2022/01/23 16:10:10;;;;;;;;;23.00;18.75;;;;;7.49;65.11;102516.78;5033883;28;45891;-77
2022/01/23 16:15:58;;;;;;;;;29.50;23.25;;;;;7.63;65.11;102538.13;5036590;28;46199;-78
2022/01/23 16:18:24;;;;;;;;;27.25;21.00;;;;;7.56;65.04;102529.59;5036912;28;46280;-78